Urnieta, Spain
Current Conditions -  °F | °C
As of 6:00 AM on Saturday 01 Nov 2014 (Local Time) from LESO Reporting Station
Clear Clear  
Wind Chill: 66°   Ceiling: Unl
Heat Index: 66°   Visibility: 6mi
Dew Point: 54°   Wind: 5mph
Humidity: 64%   Direction: 160°SSE
Pressure: 30.12"   Gusts: NA
Location:  43.25°N, 1.99°W
Report Text: LESO 010500Z 16004KT 120V190 CAVOK 19/12 Q1020
Loading
Personal Weather Stations






























Interactive Weather Map
Tropical Storm Tracking
New forecast layout! Learn more

10-Day Weather Forecast

Advertisements
Track Severe Weather on mobile